Time;durP1;ratioP1;P1;durP2;ratioP2;P2;SDS_P1;SDS_P2;PMS_P1;PMS_P2;Temp;Humidity;BMP_temperature;BMP_pressure;BME280_temperature;BME280_humidity;BME280_pressure;Samples;Min_cycle;Max_cycle;Signal;HPM_P1;HPM_P2
2022/06/28 00:02:21;;;;;;;23.30;6.23;;;28.10;66.90;;;;;;5073650;28;20456;-50
2022/06/28 00:04:47;;;;;;;20.93;5.83;;;28.00;66.70;;;;;;5074709;28;20032;-48
2022/06/28 00:07:13;;;;;;;21.90;6.10;;;27.90;66.90;;;;;;5072999;28;20085;-49
2022/06/28 00:09:39;;;;;;;33.72;7.35;;;27.90;67.20;;;;;;5074949;28;20492;-48
2022/06/28 00:12:05;;;;;;;28.67;8.60;;;27.90;67.40;;;;;;5074600;28;20013;-51
2022/06/28 00:17:14;;;;;;;20.83;6.18;;;27.80;67.60;;;;;;5074429;28;20519;-48
2022/06/28 00:19:40;;;;;;;21.33;8.20;;;27.70;67.70;;;;;;5073998;28;20037;-49
2022/06/28 00:22:06;;;;;;;21.13;7.83;;;27.80;67.60;;;;;;5074079;28;20384;-49
2022/06/28 00:24:32;;;;;;;19.97;6.70;;;27.80;67.60;;;;;;5074540;28;20075;-50
2022/06/28 00:26:58;;;;;;;25.77;6.50;;;27.70;67.80;;;;;;5073983;28;20591;-48
2022/06/28 00:29:23;;;;;;;28.77;6.82;;;27.80;68.00;;;;;;5072425;28;20040;-48
2022/06/28 00:31:49;;;;;;;29.33;7.23;;;27.70;68.60;;;;;;5072307;28;20016;-49
2022/06/28 00:34:15;;;;;;;29.60;7.27;;;27.70;68.10;;;;;;5055888;28;20396;-49
2022/06/28 00:36:41;;;;;;;39.87;8.03;;;27.60;68.40;;;;;;5073171;28;20024;-50
2022/06/28 00:39:07;;;;;;;25.83;9.32;;;27.60;67.90;;;;;;5073168;28;20025;-49
2022/06/28 00:41:34;;;;;;;23.43;7.70;;;27.60;67.80;;;;;;5074376;28;20032;-52
2022/06/28 00:44:00;;;;;;;27.02;7.63;;;27.70;67.90;;;;;;5074091;28;20362;-49
2022/06/28 00:46:26;;;;;;;17.52;6.45;;;27.60;68.10;;;;;;5073704;28;20028;-49
2022/06/28 00:48:52;;;;;;;25.97;6.27;;;27.60;67.90;;;;;;5073738;28;20048;-48
2022/06/28 00:51:18;;;;;;;24.73;7.53;;;27.60;68.10;;;;;;5073896;28;20024;-48
2022/06/28 00:53:44;;;;;;;22.93;6.80;;;27.60;68.40;;;;;;5073912;28;20495;-49
2022/06/28 00:56:09;;;;;;;28.73;6.87;;;27.60;68.10;;;;;;5074068;28;20032;-48
2022/06/28 00:58:35;;;;;;;20.13;6.70;;;27.60;68.10;;;;;;5073470;28;20489;-50
2022/06/28 01:01:01;;;;;;;19.90;6.75;;;27.60;68.20;;;;;;5073781;28;20120;-49
2022/06/28 01:03:27;;;;;;;22.70;7.23;;;27.60;68.20;;;;;;5073706;28;20374;-49
2022/06/28 01:05:54;;;;;;;24.52;7.32;;;27.60;68.00;;;;;;5071715;28;20060;-48
2022/06/28 01:08:20;;;;;;;34.70;6.95;;;27.60;68.10;;;;;;5073199;28;20036;-48
2022/06/28 01:10:46;;;;;;;19.43;6.93;;;27.60;68.00;;;;;;5053825;28;20112;-49
2022/06/28 01:13:12;;;;;;;29.67;7.60;;;27.60;68.00;;;;;;5049319;28;20027;-51
2022/06/28 01:15:41;;;;;;;43.78;8.05;;;27.60;67.80;;;;;;5093819;28;20077;-49
2022/06/28 01:18:08;;;;;;;18.25;7.13;;;27.60;67.90;;;;;;5093479;28;20036;-51
2022/06/28 01:20:34;;;;;;;23.88;6.80;;;27.60;68.20;;;;;;5075173;28;20109;-48
2022/06/28 01:23:01;;;;;;;42.00;8.32;;;27.60;68.20;;;;;;5073654;28;20021;-49
2022/06/28 01:25:26;;;;;;;31.98;7.55;;;27.60;68.40;;;;;;5073174;28;20035;-49
2022/06/28 01:27:54;;;;;;;24.50;6.47;;;27.50;68.60;;;;;;5073249;28;20033;-49
2022/06/28 01:30:20;;;;;;;26.80;7.95;;;27.50;68.80;;;;;;5073072;28;20027;-49
2022/06/28 01:32:46;;;;;;;19.10;7.15;;;27.50;69.10;;;;;;5061406;28;20028;-49
2022/06/28 01:35:11;;;;;;;19.47;6.70;;;27.50;69.30;;;;;;5072427;28;20023;-50
2022/06/28 01:37:38;;;;;;;26.00;8.20;;;27.50;69.50;;;;;;5072866;28;20020;-50
2022/06/28 01:40:05;;;;;;;18.67;7.70;;;27.40;69.60;;;;;;5071607;28;20491;-51
2022/06/28 01:42:31;;;;;;;21.40;7.47;;;27.40;69.70;;;;;;5073213;28;20024;-49
2022/06/28 01:44:58;;;;;;;25.48;8.20;;;27.40;70.20;;;;;;5071493;28;20492;-48
2022/06/28 01:47:29;;;;;;;30.58;8.23;;;27.30;70.30;;;;;;5071160;28;20485;-48
2022/06/28 01:49:55;;;;;;;19.73;7.63;;;27.20;70.80;;;;;;5060187;28;20115;-50
2022/06/28 01:52:21;;;;;;;26.53;7.50;;;27.10;70.80;;;;;;5072635;28;20425;-51
2022/06/28 01:54:47;;;;;;;18.92;6.47;;;27.20;71.00;;;;;;5072621;28;20631;-49
2022/06/28 01:57:15;;;;;;;28.23;9.60;;;27.20;71.10;;;;;;5072624;28;20021;-51
2022/06/28 01:59:41;;;;;;;21.77;7.40;;;27.10;71.20;;;;;;5072633;28;20463;-50
2022/06/28 02:02:07;;;;;;;;;;;27.10;71.50;;;;;;5072675;28;20400;-49
2022/06/28 02:04:33;;;;;;;25.63;8.15;;;27.00;71.50;;;;;;5072440;28;19915;-49
2022/06/28 02:06:59;;;;;;;19.13;8.23;;;26.90;71.80;;;;;;5072365;28;20027;-48
2022/06/28 02:09:25;;;;;;;26.23;9.77;;;26.90;71.80;;;;;;5072229;28;20029;-48
2022/06/28 02:11:53;;;;;;;19.38;7.40;;;26.80;72.00;;;;;;5072447;28;20105;-48
2022/06/28 02:14:19;;;;;;;15.35;7.20;;;26.80;72.10;;;;;;5072298;28;20480;-50
2022/06/28 02:16:45;;;;;;;20.25;7.88;;;26.80;72.10;;;;;;5071781;28;20066;-49
2022/06/28 02:19:11;;;;;;;27.50;7.70;;;26.70;72.00;;;;;;5072053;28;20098;-48
2022/06/28 02:21:41;;;;;;;17.48;8.00;;;26.70;72.30;;;;;;5072161;28;20028;-49
2022/06/28 02:24:08;;;;;;;20.75;8.20;;;26.70;72.20;;;;;;5063962;28;20416;-48
2022/06/28 02:26:34;;;;;;;18.17;8.57;;;26.70;72.40;;;;;;5072031;28;20024;-50
2022/06/28 02:29:04;;;;;;;23.27;8.97;;;26.70;72.40;;;;;;5053962;28;20051;-51
2022/06/28 02:31:31;;;;;;;18.98;8.63;;;26.70;72.50;;;;;;5071620;28;20146;-49
2022/06/28 02:33:57;;;;;;;25.83;8.25;;;26.70;72.20;;;;;;5071823;28;20016;-51
2022/06/28 02:41:43;;;;;;;19.13;8.23;;;26.60;72.50;;;;;;5071886;28;20036;-49
2022/06/28 02:44:10;;;;;;;;;;;26.50;72.70;;;;;;5072039;28;20389;-49
2022/06/28 02:46:36;;;;;;;24.08;9.50;;;26.50;72.70;;;;;;5071019;28;20262;-49
2022/06/28 02:49:02;;;;;;;19.70;8.57;;;26.40;73.00;;;;;;5071055;28;20024;-51
2022/06/28 02:51:28;;;;;;;21.10;8.38;;;26.30;73.40;;;;;;5071213;28;20543;-48
2022/06/28 02:53:54;;;;;;;17.00;7.70;;;26.30;73.60;;;;;;5071248;28;20017;-49
2022/06/28 02:56:20;;;;;;;16.45;8.32;;;26.30;73.70;;;;;;5071710;28;20174;-48
2022/06/28 02:58:45;;;;;;;29.10;9.60;;;26.30;73.90;;;;;;5071436;28;20524;-49
2022/06/28 03:01:11;;;;;;;22.70;9.80;;;26.20;73.80;;;;;;5071422;28;20039;-48
2022/06/28 03:03:37;;;;;;;18.90;9.07;;;26.10;73.80;;;;;;5071283;28;20040;-49
2022/06/28 03:06:04;;;;;;;18.65;9.02;;;26.20;74.10;;;;;;5053823;28;20103;-49
2022/06/28 03:08:29;;;;;;;23.80;8.77;;;26.10;74.00;;;;;;5071089;28;20455;-51
2022/06/28 03:10:55;;;;;;;27.40;8.53;;;26.20;74.10;;;;;;5071712;28;20107;-49
2022/06/28 03:13:21;;;;;;;21.50;9.30;;;26.20;74.00;;;;;;5069104;28;20056;-50
2022/06/28 03:15:47;;;;;;;26.33;10.57;;;26.10;74.00;;;;;;5074865;28;20089;-50
2022/06/28 03:18:13;;;;;;;26.30;10.27;;;26.10;74.90;;;;;;5091926;28;20028;-48
2022/06/28 03:20:38;;;;;;;20.00;9.57;;;26.00;74.30;;;;;;5062781;28;20287;-49
2022/06/28 03:23:04;;;;;;;25.43;9.93;;;26.00;74.20;;;;;;5071570;28;20112;-52
2022/06/28 03:25:30;;;;;;;17.60;8.27;;;26.00;74.30;;;;;;5071454;28;20020;-49
2022/06/28 03:27:55;;;;;;;16.00;7.93;;;26.00;74.30;;;;;;5071130;28;20099;-48
2022/06/28 03:30:21;;;;;;;21.83;9.70;;;25.90;74.10;;;;;;5075603;28;20096;-50
2022/06/28 03:32:47;;;;;;;19.57;8.57;;;25.90;74.30;;;;;;5075243;28;20039;-50
2022/06/28 03:35:12;;;;;;;28.43;9.33;;;25.80;74.40;;;;;;5075490;28;20027;-50
2022/06/28 03:37:38;;;;;;;34.50;10.63;;;25.90;74.40;;;;;;5074787;28;20033;-50
2022/06/28 03:40:05;;;;;;;19.83;8.80;;;25.90;74.20;;;;;;5075143;28;20150;-49
2022/06/28 03:42:31;;;;;;;;;;;25.90;74.20;;;;;;5074369;28;20024;-49
2022/06/28 03:44:56;;;;;;;23.15;9.48;;;25.90;74.20;;;;;;5075475;28;19911;-48
2022/06/28 03:47:22;;;;;;;29.47;9.37;;;25.80;74.40;;;;;;5075104;28;20134;-49
2022/06/28 03:49:48;;;;;;;23.77;9.60;;;25.80;74.40;;;;;;5074034;28;20451;-49
2022/06/28 03:52:15;;;;;;;18.00;9.00;;;25.80;74.40;;;;;;5072818;28;20032;-48
2022/06/28 03:54:41;;;;;;;23.23;9.60;;;25.80;74.50;;;;;;5073615;28;20025;-48
2022/06/28 03:57:06;;;;;;;19.67;9.13;;;25.80;74.30;;;;;;5073560;28;20029;-51
2022/06/28 03:59:32;;;;;;;20.23;8.27;;;25.90;74.40;;;;;;5073055;28;20028;-49
2022/06/28 04:01:58;;;;;;;25.63;8.97;;;25.80;74.50;;;;;;5060372;28;20028;-49
2022/06/28 04:04:24;;;;;;;18.37;8.43;;;25.80;74.50;;;;;;5073284;28;20035;-48
2022/06/28 04:06:49;;;;;;;20.53;9.13;;;25.80;74.40;;;;;;5073140;28;20029;-50
2022/06/28 04:09:17;;;;;;;22.10;9.17;;;25.80;74.40;;;;;;5073467;28;20087;-49
2022/06/28 04:11:43;;;;;;;20.33;8.88;;;25.80;74.40;;;;;;5073853;28;20021;-49
2022/06/28 04:14:13;;;;;;;22.48;11.25;;;25.80;74.40;;;;;;5073812;28;20508;-49
2022/06/28 04:16:40;;;;;;;33.13;12.77;;;25.80;74.30;;;;;;5073701;28;20044;-49
2022/06/28 04:19:07;;;;;;;23.13;13.70;;;25.90;74.30;;;;;;5073350;28;20071;-49
2022/06/28 04:21:32;;;;;;;22.52;13.88;;;25.90;74.30;;;;;;5073471;28;20028;-49
2022/06/28 04:23:58;;;;;;;27.23;14.23;;;25.90;74.30;;;;;;5073547;28;20025;-52
2022/06/28 04:26:24;;;;;;;23.23;13.67;;;25.90;74.40;;;;;;5073581;28;20378;-48
2022/06/28 04:28:49;;;;;;;26.53;13.40;;;25.90;74.30;;;;;;5073301;28;20028;-48
2022/06/28 04:31:15;;;;;;;26.73;14.17;;;25.90;74.50;;;;;;5073399;28;20027;-49
2022/06/28 04:33:41;;;;;;;27.63;14.83;;;25.90;74.50;;;;;;5038821;28;20431;-48
2022/06/28 04:36:07;;;;;;;30.63;13.90;;;25.90;74.70;;;;;;5073229;28;20021;-49
2022/06/28 04:38:33;;;;;;;37.83;15.47;;;25.90;74.70;;;;;;5073033;28;20020;-49
2022/06/28 04:40:59;;;;;;;29.90;14.45;;;25.90;74.80;;;;;;5073324;28;20032;-49
2022/06/28 04:43:25;;;;;;;31.50;14.63;;;26.00;74.60;;;;;;5073274;28;20029;-50
2022/06/28 04:45:51;;;;;;;25.27;14.20;;;26.00;74.40;;;;;;5073151;28;20035;-48
2022/06/28 04:48:16;;;;;;;35.47;17.07;;;26.10;74.40;;;;;;4956806;28;3318597;-49
2022/06/28 04:50:42;;;;;;;25.70;13.83;;;26.20;74.30;;;;;;5074236;28;20117;-49
2022/06/28 04:53:08;;;;;;;22.83;13.50;;;26.30;74.20;;;;;;5074200;28;20158;-49
2022/06/28 04:55:33;;;;;;;40.40;14.17;;;26.30;74.00;;;;;;5056331;28;20171;-48
2022/06/28 04:57:59;;;;;;;31.33;13.07;;;26.30;73.90;;;;;;5073928;28;20094;-49
2022/06/28 05:00:25;;;;;;;27.33;12.47;;;26.30;73.80;;;;;;5073979;28;20032;-49
2022/06/28 05:02:51;;;;;;;29.57;12.83;;;26.40;73.90;;;;;;5074014;28;20096;-49
2022/06/28 05:05:16;;;;;;;41.83;13.33;;;26.40;73.80;;;;;;5073843;28;20028;-48
2022/06/28 05:07:42;;;;;;;40.43;11.70;;;26.50;73.90;;;;;;5055558;28;20059;-49
2022/06/28 05:10:08;;;;;;;29.27;10.17;;;26.50;73.30;;;;;;5073894;28;20031;-49
2022/06/28 05:12:34;;;;;;;23.90;9.97;;;26.60;72.60;;;;;;5073850;28;20099;-49
2022/06/28 05:14:59;;;;;;;20.77;9.67;;;26.70;72.30;;;;;;5073653;28;20259;-49
2022/06/28 05:17:25;;;;;;;22.27;9.40;;;26.70;71.70;;;;;;5073474;28;20028;-51
2022/06/28 05:19:52;;;;;;;32.07;10.37;;;26.80;71.30;;;;;;5073605;28;20056;-48
2022/06/28 05:22:17;;;;;;;;;;;26.90;71.00;;;;;;5074204;28;20035;-49
2022/06/28 05:24:43;;;;;;;38.13;10.80;;;27.00;70.90;;;;;;5073621;28;19904;-49
2022/06/28 05:27:09;;;;;;;19.00;8.50;;;27.00;71.10;;;;;;5073314;28;20032;-49
2022/06/28 05:29:34;;;;;;;25.03;9.67;;;27.10;71.10;;;;;;5073440;28;20017;-48
2022/06/28 05:32:00;;;;;;;23.87;9.63;;;27.20;70.90;;;;;;5073383;28;20032;-49
2022/06/28 05:34:26;;;;;;;25.53;9.37;;;27.30;71.00;;;;;;5073406;28;20025;-48
2022/06/28 05:36:52;;;;;;;25.20;9.60;;;27.30;70.70;;;;;;5073364;28;20029;-48
2022/06/28 05:39:17;;;;;;;21.60;8.97;;;27.40;70.60;;;;;;5073147;28;20024;-52
2022/06/28 05:41:43;;;;;;;34.87;11.33;;;27.40;70.90;;;;;;5055311;28;20098;-49
2022/06/28 05:44:11;;;;;;;30.73;10.80;;;27.40;71.40;;;;;;5073146;28;20024;-50
2022/06/28 05:46:39;;;;;;;21.10;10.02;;;27.40;72.10;;;;;;5073040;28;20261;-49
2022/06/28 05:49:06;;;;;;;26.77;11.20;;;27.40;73.10;;;;;;5073226;28;20056;-52
2022/06/28 05:51:32;;;;;;;26.98;11.00;;;27.40;73.10;;;;;;5072650;28;20021;-48
2022/06/28 05:53:58;;;;;;;33.57;11.80;;;27.40;72.60;;;;;;5072957;28;20414;-49
2022/06/28 05:56:24;;;;;;;25.07;9.50;;;27.50;72.30;;;;;;5073404;28;20588;-49
2022/06/28 05:58:49;;;;;;;25.25;8.93;;;27.40;71.70;;;;;;5072799;28;20025;-49
2022/06/28 06:01:15;;;;;;;29.20;11.03;;;27.50;71.50;;;;;;5072848;28;20025;-49
2022/06/28 06:03:41;;;;;;;27.43;10.87;;;27.60;71.20;;;;;;5072729;28;20495;-49
2022/06/28 06:06:07;;;;;;;29.80;10.97;;;27.60;70.90;;;;;;5072746;28;20420;-50
2022/06/28 06:08:35;;;;;;;26.48;11.43;;;27.80;71.30;;;;;;5072434;28;20089;-51
2022/06/28 06:11:02;;;;;;;33.35;9.43;;;27.80;71.00;;;;;;5072613;28;20021;-52
2022/06/28 06:13:28;;;;;;;27.70;10.35;;;28.00;70.50;;;;;;5072505;28;20103;-48
2022/06/28 06:15:54;;;;;;;19.80;8.70;;;28.10;70.00;;;;;;5072512;28;20212;-48
2022/06/28 06:18:20;;;;;;;31.02;9.88;;;28.10;69.30;;;;;;5072225;28;20025;-51
2022/06/28 06:20:46;;;;;;;26.73;9.85;;;28.20;68.50;;;;;;5072526;28;20404;-49
2022/06/28 06:23:12;;;;;;;27.20;10.40;;;28.20;68.00;;;;;;5072536;28;20020;-49
2022/06/28 06:25:38;;;;;;;23.93;10.27;;;28.20;68.00;;;;;;5072429;28;20261;-50
2022/06/28 06:28:03;;;;;;;22.60;9.47;;;28.20;67.20;;;;;;5071898;28;20393;-49
2022/06/28 06:30:29;;;;;;;22.30;9.43;;;28.30;66.40;;;;;;5072201;28;20115;-49
2022/06/28 06:32:55;;;;;;;32.30;8.83;;;28.30;66.20;;;;;;5054260;28;20305;-51
2022/06/28 06:35:21;;;;;;;28.03;8.80;;;28.30;65.80;;;;;;5072185;28;20024;-48
2022/06/28 06:37:46;;;;;;;21.47;8.97;;;28.40;65.60;;;;;;5071964;28;20028;-49
2022/06/28 06:40:12;;;;;;;22.47;7.63;;;28.50;66.30;;;;;;5072157;28;20707;-49
2022/06/28 06:42:38;;;;;;;20.35;8.57;;;28.50;66.30;;;;;;5071988;28;20024;-50
2022/06/28 06:45:04;;;;;;;28.17;8.63;;;28.60;66.50;;;;;;5072010;28;20108;-49
2022/06/28 06:47:30;;;;;;;26.52;8.43;;;28.60;66.60;;;;;;5071693;28;20032;-49
2022/06/28 06:49:55;;;;;;;21.57;8.97;;;28.70;65.80;;;;;;5071982;28;20032;-49
2022/06/28 06:52:21;;;;;;;25.33;9.53;;;28.80;65.80;;;;;;5071953;28;20025;-49
2022/06/28 06:54:47;;;;;;;29.57;9.23;;;28.80;65.80;;;;;;5071803;28;20025;-48
2022/06/28 06:57:15;;;;;;;25.90;8.10;;;28.70;65.10;;;;;;5072045;28;20488;-49
2022/06/28 06:59:41;;;;;;;22.58;8.52;;;28.70;64.70;;;;;;5071755;28;20036;-51
2022/06/28 07:02:06;;;;;;;29.87;9.40;;;28.80;64.40;;;;;;5071782;28;20032;-49
2022/06/28 07:04:32;;;;;;;22.20;7.60;;;28.80;63.90;;;;;;5053773;28;20036;-49
2022/06/28 07:06:58;;;;;;;19.97;8.47;;;28.80;63.40;;;;;;5071696;28;20507;-49
2022/06/28 07:09:24;;;;;;;20.70;8.60;;;28.90;63.40;;;;;;5071553;28;20161;-51
2022/06/28 07:11:49;;;;;;;24.38;7.47;;;28.90;63.30;;;;;;5071648;28;20021;-51
2022/06/28 07:14:15;;;;;;;22.47;8.60;;;28.90;62.40;;;;;;5071693;28;20415;-48
2022/06/28 07:16:41;;;;;;;24.50;7.53;;;28.90;63.20;;;;;;5071688;28;20520;-48
2022/06/28 07:19:07;;;;;;;18.93;6.30;;;29.00;63.10;;;;;;5071547;28;20016;-50
2022/06/28 07:21:32;;;;;;;23.50;7.13;;;29.10;62.40;;;;;;5071664;28;20428;-49
2022/06/28 07:23:58;;;;;;;22.00;8.73;;;29.20;63.10;;;;;;5071575;28;20017;-49
2022/06/28 07:26:24;;;;;;;30.60;9.20;;;29.30;62.50;;;;;;5071572;28;20055;-48
2022/06/28 07:28:49;;;;;;;21.70;8.70;;;29.30;62.30;;;;;;5071246;28;20061;-49
2022/06/28 07:31:15;;;;;;;27.13;9.23;;;29.40;62.60;;;;;;5071462;28;20048;-49
2022/06/28 07:33:42;;;;;;;20.80;7.78;;;29.40;63.00;;;;;;5053511;28;20021;-48
2022/06/28 07:36:08;;;;;;;21.25;7.97;;;;;;;;;;5053490;28;20107;-49
2022/06/28 07:38:34;;;;;;;30.10;8.40;;;;;;;;;;5071257;28;20021;-48
2022/06/28 07:41:00;;;;;;;33.67;8.20;;;;;;;;;;5071341;28;20028;-49
2022/06/28 07:43:27;;;;;;;23.83;7.43;;;;;;;;;;5053291;28;20067;-48
2022/06/28 07:45:53;;;;;;;17.20;5.72;;;;;;;;;;5071337;28;20523;-49
2022/06/28 07:48:20;;;;;;;15.88;4.93;;;;;;;;;;5071066;28;20028;-48
2022/06/28 07:53:31;;;;;;;13.88;5.82;;;29.80;51.60;;;;;;5071519;28;19957;-59
2022/06/28 07:55:57;;;;;;;18.98;5.55;;;29.70;51.80;;;;;;5071307;28;20429;-59
2022/06/28 07:58:22;;;;;;;16.47;4.77;;;29.80;52.40;;;;;;5070982;28;20109;-59
2022/06/28 08:00:48;;;;;;;16.70;5.83;;;29.80;52.20;;;;;;5071275;28;20485;-59
2022/06/28 08:03:14;;;;;;;17.40;5.23;;;29.90;52.10;;;;;;5071226;28;20170;-59
2022/06/28 08:05:39;;;;;;;17.70;5.07;;;29.90;51.60;;;;;;5071019;28;20081;-59
2022/06/28 08:08:05;;;;;;;24.57;6.23;;;29.90;52.10;;;;;;5070957;28;20021;-59
2022/06/28 08:10:31;;;;;;;25.33;7.90;;;29.90;52.30;;;;;;5071194;28;20427;-59
2022/06/28 08:12:57;;;;;;;23.37;6.37;;;29.90;52.10;;;;;;5036613;28;20271;-60
2022/06/28 08:15:22;;;;;;;17.50;5.90;;;29.90;53.00;;;;;;5055075;28;20400;-59
2022/06/28 08:17:48;;;;;;;13.17;5.13;;;29.90;53.10;;;;;;5074630;28;20262;-59
2022/06/28 08:20:14;;;;;;;19.47;5.93;;;30.00;52.30;;;;;;5075116;28;20028;-59
2022/06/28 08:22:39;;;;;;;18.17;5.43;;;30.10;52.10;;;;;;5074786;28;20112;-58
2022/06/28 08:25:06;;;;;;;16.40;5.38;;;30.10;52.30;;;;;;5074683;28;20028;-59
2022/06/28 08:27:31;;;;;;;20.85;4.97;;;30.20;51.50;;;;;;5074241;28;20020;-59
2022/06/28 08:29:57;;;;;;;16.03;4.57;;;30.30;51.20;;;;;;5056658;28;20024;-58
2022/06/28 08:32:23;;;;;;;17.90;5.65;;;30.40;50.80;;;;;;5074613;28;20032;-59
2022/06/28 08:34:50;;;;;;;20.30;4.82;;;30.50;50.40;;;;;;5074441;28;20013;-59
2022/06/28 08:37:16;;;;;;;15.80;4.75;;;30.60;49.60;;;;;;5074160;28;20035;-59
2022/06/28 08:39:42;;;;;;;16.30;4.70;;;30.70;50.50;;;;;;5074349;28;20028;-59
2022/06/28 08:42:10;;;;;;;15.35;5.97;;;30.80;49.90;;;;;;5074264;28;20037;-59
2022/06/28 08:44:36;;;;;;;18.85;5.20;;;30.90;49.60;;;;;;5074310;28;20082;-58
2022/06/28 08:47:03;;;;;;;16.77;4.35;;;30.90;49.80;;;;;;5074132;28;20477;-57
2022/06/28 08:49:41;;;;;;;23.42;5.65;;;30.90;49.40;;;;;;5074091;28;20465;-58
2022/06/28 08:52:09;;;;;;;17.80;4.72;;;31.00;49.80;;;;;;5074116;28;20400;-59
2022/06/28 08:54:35;;;;;;;12.70;4.75;;;31.00;49.20;;;;;;5074011;28;20030;-59
2022/06/28 08:57:05;;;;;;;18.02;4.45;;;31.10;49.70;;;;;;5074132;28;20189;-60
2022/06/28 08:59:31;;;;;;;18.38;6.00;;;31.20;49.80;;;;;;5074026;28;20481;-57
2022/06/28 09:01:56;;;;;;;16.55;5.57;;;31.10;50.20;;;;;;5074027;28;20099;-59
2022/06/28 09:04:22;;;;;;;16.83;5.03;;;31.20;49.50;;;;;;5073937;28;20111;-57
2022/06/28 09:06:48;;;;;;;14.52;4.18;;;31.20;49.60;;;;;;5073872;28;20028;-60
2022/06/28 09:09:14;;;;;;;13.03;4.73;;;31.10;50.00;;;;;;5073741;28;20103;-59
2022/06/28 09:11:42;;;;;;;16.00;4.28;;;31.10;49.30;;;;;;5074042;28;20489;-59
2022/06/28 09:14:31;;;;;;;18.25;5.35;;;31.00;48.90;;;;;;5073800;28;20099;-60
2022/06/28 09:16:58;;;;;;;13.82;5.10;;;31.00;48.60;;;;;;5074202;28;20448;-59
2022/06/28 09:19:33;;;;;;;;;;;31.00;49.00;;;;;;5073843;28;20025;-60
2022/06/28 09:21:59;;;;;;;15.45;4.25;;;31.00;49.40;;;;;;5073800;28;19993;-56
2022/06/28 09:24:26;;;;;;;23.25;4.68;;;31.10;49.00;;;;;;5073618;28;20025;-58
2022/06/28 09:26:59;;;;;;;;;;;31.20;48.70;;;;;;5072848;28;20031;-60
2022/06/28 09:29:24;;;;;;;18.23;4.40;;;31.20;48.80;;;;;;5073333;28;19957;-60
2022/06/28 09:31:51;;;;;;;22.08;5.15;;;31.30;48.40;;;;;;5073410;28;20393;-59
2022/06/28 09:34:16;;;;;;;11.93;4.20;;;31.40;47.50;;;;;;5073304;28;20051;-59
2022/06/28 09:36:57;;;;;;;21.77;4.43;;;31.50;47.50;;;;;;5073539;28;20060;-59
2022/06/28 09:39:28;;;;;;;20.45;4.60;;;31.60;47.50;;;;;;5073077;28;20120;-60
2022/06/28 09:41:56;;;;;;;20.33;3.75;;;31.70;46.60;;;;;;5073210;28;20024;-58
2022/06/28 09:44:29;;;;;;;17.92;4.90;;;31.90;46.50;;;;;;5073041;28;20393;-59
2022/06/28 09:46:57;;;;;;;20.90;3.78;;;32.00;46.80;;;;;;5073057;28;20393;-59
2022/06/28 09:49:32;;;;;;;22.02;4.72;;;32.10;46.30;;;;;;5072819;28;20024;-60
2022/06/28 09:52:00;;;;;;;17.30;5.05;;;32.10;46.70;;;;;;5073135;28;20048;-58
2022/06/28 09:54:28;;;;;;;17.67;4.53;;;32.10;47.40;;;;;;5054951;28;20581;-57
2022/06/28 09:56:55;;;;;;;23.75;5.90;;;32.00;47.40;;;;;;5072910;28;20028;-58
2022/06/28 09:59:26;;;;;;;11.80;4.05;;;31.90;47.30;;;;;;5072831;28;20037;-58
2022/06/28 10:01:56;;;;;;;20.08;5.20;;;31.70;48.10;;;;;;5072863;28;20292;-59
2022/06/28 10:04:24;;;;;;;19.75;4.50;;;31.70;48.20;;;;;;5072802;28;20032;-59
2022/06/28 10:06:51;;;;;;;17.02;4.10;;;31.50;47.80;;;;;;5072627;28;20105;-59
2022/06/28 10:09:19;;;;;;;17.48;4.97;;;31.30;48.50;;;;;;5072417;28;20027;-60
2022/06/28 10:17:43;;;;;;;23.55;5.03;;;31.00;49.00;;;;;;5080318;28;20089;-59
2022/06/28 10:20:18;;;;;;;27.08;6.13;;;30.90;48.90;;;;;;5072443;28;20504;-60
2022/06/28 10:22:44;;;;;;;19.75;4.72;;;30.80;49.40;;;;;;5071170;28;20481;-60
2022/06/28 10:25:22;;;;;;;19.37;5.03;;;30.60;49.50;;;;;;5071925;28;20078;-58
2022/06/28 10:27:51;;;;;;;17.23;4.35;;;30.50;49.10;;;;;;5072101;28;20631;-58
2022/06/28 10:30:29;;;;;;;26.90;5.72;;;30.50;49.50;;;;;;5072129;28;20052;-59
2022/06/28 10:33:03;;;;;;;26.70;5.18;;;30.50;50.00;;;;;;5071571;28;20059;-60
2022/06/28 10:35:29;;;;;;;30.77;4.90;;;30.50;50.80;;;;;;5072130;28;20098;-60
2022/06/28 10:38:10;;;;;;;15.07;4.63;;;30.60;49.00;;;;;;5055505;28;20060;-59
2022/06/28 10:40:41;;;;;;;14.88;4.38;;;30.70;48.90;;;;;;5078636;28;20397;-60
2022/06/28 10:43:08;;;;;;;15.32;4.53;;;30.80;48.80;;;;;;5071192;28;20063;-60
2022/06/28 10:46:05;;;;;;;17.08;4.03;;;30.90;48.40;;;;;;5070133;28;20117;-59
2022/06/28 10:48:52;;;;;;;15.63;3.92;;;31.10;48.70;;;;;;5067765;28;20040;-60
2022/06/28 10:51:19;;;;;;;15.70;4.95;;;31.30;49.20;;;;;;5057325;28;20047;-60
2022/06/28 10:54:01;;;;;;;19.45;4.53;;;31.40;48.70;;;;;;5070772;28;20493;-60
2022/06/28 10:56:29;;;;;;;28.25;4.78;;;31.40;49.50;;;;;;5071704;28;20024;-59
2022/06/28 10:59:04;;;;;;;16.65;3.53;;;31.30;49.40;;;;;;5070490;28;20028;-60
2022/06/28 11:01:39;;;;;;;26.27;4.57;;;31.10;50.80;;;;;;5071311;28;20055;-60
2022/06/28 11:04:11;;;;;;;25.95;5.43;;;30.90;49.60;;;;;;5070484;28;20025;-59
2022/06/28 11:06:43;;;;;;;19.13;4.78;;;30.80;48.80;;;;;;5070275;28;20024;-59
2022/06/28 11:09:50;;;;;;;19.55;4.88;;;30.70;49.50;;;;;;5068764;28;20094;-60
2022/06/28 11:12:18;;;;;;;13.82;3.65;;;30.80;49.70;;;;;;5058257;28;20107;-59
2022/06/28 11:14:50;;;;;;;20.80;4.95;;;30.90;49.80;;;;;;5071615;28;20451;-59
2022/06/28 11:17:22;;;;;;;18.42;5.82;;;31.00;48.80;;;;;;5071367;28;20035;-60
2022/06/28 11:19:51;;;;;;;15.55;3.88;;;31.10;49.10;;;;;;5069763;28;20025;-58
2022/06/28 11:22:22;;;;;;;20.05;3.47;;;31.10;48.90;;;;;;5069032;28;20028;-58
2022/06/28 11:24:49;;;;;;;14.13;3.80;;;31.20;48.20;;;;;;5088796;28;20550;-59
2022/06/28 11:27:21;;;;;;;16.73;4.15;;;31.20;47.90;;;;;;5071337;28;20033;-59
2022/06/28 11:30:04;;;;;;;13.90;3.95;;;31.20;47.40;;;;;;5070810;28;20099;-58
2022/06/28 11:32:41;;;;;;;18.70;4.43;;;31.30;47.70;;;;;;5070291;28;20020;-57
2022/06/28 11:35:15;;;;;;;22.33;4.97;;;31.40;47.70;;;;;;5073527;28;20032;-59
2022/06/28 11:37:56;;;;;;;14.68;3.80;;;31.50;48.80;;;;;;5072108;28;20513;-60
2022/06/28 11:40:22;;;;;;;16.00;4.28;;;31.70;48.10;;;;;;5071316;28;20478;-60
2022/06/28 11:42:59;;;;;;;17.63;4.03;;;31.70;48.20;;;;;;5071290;28;20035;-60
2022/06/28 11:45:27;;;;;;;19.40;4.85;;;31.70;48.30;;;;;;5070944;28;20028;-59
2022/06/28 11:47:53;;;;;;;14.85;4.60;;;31.80;47.80;;;;;;5071296;28;20025;-59
2022/06/28 11:50:19;;;;;;;14.00;3.40;;;31.80;48.10;;;;;;5073321;28;20538;-60
2022/06/28 11:52:52;;;;;;;13.82;4.00;;;31.80;47.30;;;;;;5074336;28;20262;-59
2022/06/28 11:55:35;;;;;;;14.68;4.15;;;31.70;46.90;;;;;;5074762;28;20025;-60
2022/06/28 11:58:10;;;;;;;22.00;5.78;;;31.60;46.80;;;;;;5074973;28;20040;-57
2022/06/28 12:00:35;;;;;;;20.90;4.47;;;31.50;47.70;;;;;;5075174;28;20021;-59
2022/06/28 12:03:04;;;;;;;13.50;3.93;;;31.40;48.40;;;;;;5074776;28;20028;-59
2022/06/28 12:05:32;;;;;;;32.30;4.43;;;31.40;48.40;;;;;;5075162;28;20747;-58
2022/06/28 12:07:59;;;;;;;23.27;6.70;;;31.40;48.80;;;;;;5075270;28;20032;-59
2022/06/28 12:10:31;;;;;;;15.05;3.88;;;31.40;48.30;;;;;;5075696;28;20031;-59
2022/06/28 12:13:10;;;;;;;18.63;3.67;;;31.30;48.40;;;;;;5075642;28;20737;-59
2022/06/28 12:15:36;;;;;;;14.52;3.45;;;31.30;48.40;;;;;;5075626;28;20051;-59
2022/06/28 12:18:03;;;;;;;;;;;31.30;48.70;;;;;;5075529;28;20032;-59
2022/06/28 12:20:30;;;;;;;27.52;4.50;;;31.20;48.50;;;;;;5075568;28;19947;-59
2022/06/28 12:23:02;;;;;;;11.05;4.45;;;31.10;48.40;;;;;;5074609;28;20032;-60
2022/06/28 12:25:28;;;;;;;18.70;4.93;;;31.10;49.10;;;;;;5075401;28;20039;-59
2022/06/28 12:27:54;;;;;;;16.45;4.28;;;31.00;48.80;;;;;;5075192;28;20016;-59
2022/06/28 12:30:20;;;;;;;20.50;3.85;;;31.00;49.30;;;;;;5075325;28;20024;-58
2022/06/28 12:32:46;;;;;;;18.35;4.47;;;31.00;49.60;;;;;;5074976;28;20069;-59
2022/06/28 12:35:12;;;;;;;15.95;4.57;;;31.00;49.80;;;;;;5074574;28;20024;-58
2022/06/28 12:37:38;;;;;;;16.67;3.97;;;31.00;49.90;;;;;;5074848;28;20089;-59
2022/06/28 12:40:05;;;;;;;14.80;4.20;;;31.00;50.20;;;;;;5074951;28;20052;-59
2022/06/28 12:42:32;;;;;;;13.07;5.45;;;31.00;50.20;;;;;;5073953;28;20038;-59
2022/06/28 12:45:01;;;;;;;;;;;31.00;49.90;;;;;;5075266;28;20032;-58
2022/06/28 12:47:31;;;;;;;25.88;5.18;;;30.90;50.00;;;;;;5075195;28;20134;-59
2022/06/28 12:49:59;;;;;;;23.45;5.10;;;30.90;50.20;;;;;;5074727;28;20060;-58
2022/06/28 12:52:26;;;;;;;19.58;5.45;;;31.00;50.60;;;;;;5074875;28;20024;-59
2022/06/28 12:54:52;;;;;;;;;;;31.00;50.40;;;;;;5075476;28;20115;-59
2022/06/28 12:57:17;;;;;;;20.90;4.95;;;31.10;50.80;;;;;;5075004;28;19954;-59
2022/06/28 12:59:43;;;;;;;16.38;3.95;;;31.20;50.90;;;;;;5074701;28;20032;-59